Terminal Aerodrome Forecast
Issued by NWS

Home | Current Version | Previous Version | Graphics & Text | Print | Product List | Glossary On
Versions: 1 2 3 4 5 6 7 8 9 10 11 12 13 14 15
789
FTUS43 KABR 151120
TAFMBG
TAF
KMBG 151120Z 1512/1612 17003KT P6SM SKC
     FM151500 28011KT P6SM FEW200
     FM151900 30016G23KT P6SM FEW250
     FM160000 31008KT P6SM SKC
     FM160300 25004KT P6SM SKC
     FM160600 19004KT P6SM SKC=

USA.gov is the U.S. government's official web portal to all federal, state and local government web resources and services.